Time;durP1;ratioP1;P1;durP2;ratioP2;P2;SDS_P1;SDS_P2;PMS_P1;PMS_P2;Temp;Humidity;BMP_temperature;BMP_pressure;BME280_temperature;BME280_humidity;BME280_pressure;Samples;Min_cycle;Max_cycle;Signal;HPM_P1;HPM_P2
2022/04/22 00:01:10;;;;;;;6.30;4.40;;;9.30;99.90;;;;;;4920107;29;20046;-80
2022/04/22 00:03:36;;;;;;;4.50;4.05;;;9.30;99.90;;;;;;4920334;29;20040;-80
2022/04/22 00:06:02;;;;;;;6.88;4.18;;;9.30;99.90;;;;;;4936967;29;20839;-79
2022/04/22 00:08:27;;;;;;;6.30;4.10;;;9.30;99.90;;;;;;4937069;29;20051;-80
2022/04/22 00:13:37;;;;;;;16.02;5.40;;;9.30;99.90;;;;;;4937863;29;20056;-79
2022/04/22 00:16:03;;;;;;;4.38;3.83;;;9.30;99.90;;;;;;4937144;29;20032;-78
2022/04/22 00:18:31;;;;;;;6.90;4.97;;;9.30;99.90;;;;;;4936747;29;20031;-79
2022/04/22 00:20:58;;;;;;;6.35;5.20;;;9.30;99.90;;;;;;4919560;29;20035;-79
2022/04/22 00:23:26;;;;;;;6.25;4.57;;;9.30;99.90;;;;;;4936739;29;20038;-79
2022/04/22 00:25:53;;;;;;;5.28;4.28;;;9.30;99.90;;;;;;4936610;29;20526;-78
2022/04/22 00:28:18;;;;;;;5.47;4.60;;;9.30;99.90;;;;;;4929026;29;20028;-80
2022/04/22 00:30:44;;;;;;;9.05;5.65;;;9.30;99.90;;;;;;4935512;29;20027;-78
2022/04/22 00:33:10;;;;;;;7.43;5.90;;;9.30;99.90;;;;;;4936794;29;20488;-79
2022/04/22 00:35:37;;;;;;;6.57;5.95;;;9.30;99.90;;;;;;4936590;29;20024;-78
2022/04/22 00:38:03;;;;;;;10.07;6.55;;;9.20;99.90;;;;;;4936695;29;20020;-79
2022/04/22 00:40:28;;;;;;;8.27;5.88;;;9.20;99.90;;;;;;4935368;29;20039;-79
2022/04/22 00:42:54;;;;;;;8.50;5.90;;;9.30;99.90;;;;;;4936209;29;20036;-79
2022/04/22 00:45:21;;;;;;;8.07;5.82;;;9.20;99.90;;;;;;4937525;29;20032;-79
2022/04/22 00:47:47;;;;;;;6.03;5.43;;;9.30;99.90;;;;;;4938854;29;20095;-79
2022/04/22 00:50:13;;;;;;;10.45;6.13;;;9.30;99.90;;;;;;4939043;29;20087;-78
2022/04/22 00:52:39;;;;;;;8.85;5.88;;;9.30;99.90;;;;;;4938295;29;20416;-79
2022/04/22 00:55:06;;;;;;;7.55;5.93;;;9.20;99.90;;;;;;4937523;29;20471;-78
2022/04/22 00:57:33;;;;;;;8.10;6.10;;;9.20;99.90;;;;;;4919787;29;20039;-78
2022/04/22 00:59:59;;;;;;;6.80;5.57;;;9.20;99.90;;;;;;4919463;29;20472;-79
2022/04/22 01:02:25;;;;;;;8.32;6.43;;;9.20;99.90;;;;;;4918651;29;20088;-79
2022/04/22 01:10:33;;;;;;;6.75;6.05;;;9.20;99.90;;;;;;4936192;29;20046;-79
2022/04/22 01:12:58;;;;;;;4.68;4.28;;;9.20;99.90;;;;;;4935914;29;20036;-79
2022/04/22 01:15:24;;;;;;;9.73;5.78;;;9.30;99.90;;;;;;4934791;29;20031;-79
2022/04/22 01:17:50;;;;;;;9.40;6.35;;;9.20;99.90;;;;;;4935889;29;20107;-78
2022/04/22 01:20:17;;;;;;;10.30;6.35;;;9.30;99.90;;;;;;4934744;29;20159;-79
2022/04/22 01:22:44;;;;;;;5.10;4.07;;;9.30;99.90;;;;;;4935859;29;20016;-78
2022/04/22 01:25:09;;;;;;;5.22;4.68;;;9.20;99.90;;;;;;4918770;29;20430;-79
2022/04/22 01:27:37;;;;;;;5.10;4.43;;;9.30;99.90;;;;;;4934206;29;20031;-80
2022/04/22 01:30:06;;;;;;;5.93;4.90;;;9.20;99.90;;;;;;4934348;29;20428;-80
2022/04/22 01:32:31;;;;;;;8.60;4.93;;;9.20;99.90;;;;;;4918602;29;20510;-79
2022/04/22 01:34:57;;;;;;;5.30;4.55;;;9.20;99.90;;;;;;4935541;29;20063;-79
2022/04/22 01:37:23;;;;;;;7.40;4.55;;;9.20;99.90;;;;;;4935509;29;20030;-78
2022/04/22 01:39:49;;;;;;;6.25;4.80;;;9.20;99.90;;;;;;4935453;29;20036;-79
2022/04/22 01:42:15;;;;;;;10.52;6.13;;;9.20;99.90;;;;;;4935416;29;20444;-78
2022/04/22 01:44:40;;;;;;;7.28;5.03;;;9.20;99.90;;;;;;4935451;29;20432;-79
2022/04/22 01:47:06;;;;;;;6.22;5.30;;;9.20;99.90;;;;;;4935413;29;20032;-79
2022/04/22 01:49:32;;;;;;;6.93;5.50;;;9.20;99.90;;;;;;4917963;29;20035;-80
2022/04/22 01:51:58;;;;;;;6.70;4.97;;;9.20;99.90;;;;;;4918371;29;20540;-79
2022/04/22 01:54:24;;;;;;;5.88;5.28;;;9.20;99.90;;;;;;4933749;29;20036;-79
2022/04/22 01:56:50;;;;;;;8.82;4.97;;;9.20;99.90;;;;;;4934672;29;20075;-79
2022/04/22 01:59:15;;;;;;;7.18;5.43;;;9.10;99.90;;;;;;4935733;29;20023;-78
2022/04/22 02:01:41;;;;;;;7.57;5.00;;;9.10;99.90;;;;;;4935413;29;20040;-78
2022/04/22 02:04:07;;;;;;;6.88;5.13;;;9.20;99.90;;;;;;4935239;29;20020;-78
2022/04/22 02:06:32;;;;;;;5.97;5.18;;;9.10;99.90;;;;;;4934887;29;20031;-79
2022/04/22 02:08:58;;;;;;;7.72;5.55;;;9.10;99.90;;;;;;4935022;29;20050;-79
2022/04/22 02:11:24;;;;;;;9.85;5.82;;;9.10;99.90;;;;;;4918133;29;20024;-79
2022/04/22 02:13:50;;;;;;;6.85;5.65;;;9.10;99.90;;;;;;4917625;29;20127;-78
2022/04/22 02:16:15;;;;;;;8.05;5.82;;;9.00;99.90;;;;;;4933800;29;20114;-79
2022/04/22 02:18:42;;;;;;;11.60;6.20;;;9.00;99.90;;;;;;4933991;29;20501;-78
2022/04/22 02:21:10;;;;;;;7.55;6.30;;;9.10;99.90;;;;;;4917976;29;20388;-78
2022/04/22 02:23:36;;;;;;;7.22;6.05;;;9.10;99.90;;;;;;4917946;29;20020;-79
2022/04/22 02:26:03;;;;;;;9.80;7.47;;;9.10;99.90;;;;;;4933563;29;20023;-79
2022/04/22 02:28:31;;;;;;;8.25;6.32;;;9.10;99.90;;;;;;4935050;29;20357;-79
2022/04/22 02:30:59;;;;;;;9.02;6.72;;;9.10;99.90;;;;;;4917732;29;20502;-79
2022/04/22 02:33:25;;;;;;;7.45;6.13;;;9.10;99.90;;;;;;4917680;29;20039;-78
2022/04/22 02:35:51;;;;;;;7.72;6.38;;;9.10;99.90;;;;;;4934567;29;20031;-79
2022/04/22 02:38:16;;;;;;;9.88;7.22;;;9.10;99.90;;;;;;4935581;29;20019;-78
2022/04/22 02:46:11;;;;;;;7.75;5.32;;;9.10;99.90;;;;;;4935757;29;20510;-78
2022/04/22 02:48:36;;;;;;;6.57;5.40;;;9.00;99.90;;;;;;4935738;29;20457;-78
2022/04/22 02:51:02;;;;;;;6.88;5.50;;;9.00;99.90;;;;;;4918922;29;20030;-78
2022/04/22 02:53:28;;;;;;;10.07;6.32;;;8.90;99.90;;;;;;4918102;29;20024;-78
2022/04/22 02:55:55;;;;;;;7.90;6.35;;;8.90;99.90;;;;;;4918227;29;20032;-77
2022/04/22 02:58:20;;;;;;;8.35;7.18;;;8.90;99.90;;;;;;4934986;29;20020;-78
2022/04/22 03:00:47;;;;;;;8.30;6.70;;;8.80;99.90;;;;;;4918029;29;20036;-78
2022/04/22 03:03:13;;;;;;;8.88;6.22;;;8.80;99.90;;;;;;4935396;29;20099;-78
2022/04/22 03:05:39;;;;;;;8.30;6.75;;;8.80;99.90;;;;;;4918482;29;20124;-78
2022/04/22 03:08:06;;;;;;;8.40;7.32;;;8.80;99.90;;;;;;4938334;29;20051;-78
2022/04/22 03:10:31;;;;;;;9.20;7.25;;;8.80;99.90;;;;;;4937881;29;20031;-78
2022/04/22 03:12:57;;;;;;;8.98;7.57;;;8.80;99.90;;;;;;4906473;29;20038;-78
2022/04/22 03:15:23;;;;;;;14.27;9.48;;;8.70;99.90;;;;;;4939352;29;20036;-77
2022/04/22 03:17:49;;;;;;;13.85;8.73;;;8.70;99.90;;;;;;4922000;29;20436;-78
2022/04/22 03:20:15;;;;;;;14.68;9.23;;;8.70;99.90;;;;;;4938822;29;20468;-78
2022/04/22 03:22:41;;;;;;;11.30;8.07;;;8.70;99.90;;;;;;4939339;29;20051;-78
2022/04/22 03:25:08;;;;;;;9.70;7.88;;;8.70;99.90;;;;;;4922040;29;20094;-78
2022/04/22 03:27:34;;;;;;;11.90;7.95;;;8.70;99.90;;;;;;4921753;29;20032;-77
2022/04/22 03:30:02;;;;;;;10.27;7.05;;;8.70;99.90;;;;;;4937747;29;20090;-77
2022/04/22 03:32:28;;;;;;;9.50;7.22;;;8.70;99.90;;;;;;4939176;29;20375;-78
2022/04/22 03:34:53;;;;;;;9.35;7.03;;;8.70;99.90;;;;;;4922046;29;20035;-78
2022/04/22 03:37:19;;;;;;;9.32;7.43;;;8.70;99.90;;;;;;4937426;29;20034;-78
2022/04/22 03:39:45;;;;;;;10.68;8.48;;;8.70;99.90;;;;;;4921642;29;20035;-78
2022/04/22 03:42:10;;;;;;;8.55;7.60;;;8.60;99.90;;;;;;4938589;29;20036;-78
2022/04/22 03:44:37;;;;;;;10.15;7.63;;;8.60;99.90;;;;;;4920918;29;20047;-78
2022/04/22 03:47:07;;;;;;;11.25;7.55;;;8.60;99.90;;;;;;4920780;29;20058;-78
2022/04/22 03:49:33;;;;;;;12.70;8.52;;;8.60;99.90;;;;;;4920924;29;20032;-78
2022/04/22 03:51:59;;;;;;;13.43;7.80;;;8.60;99.90;;;;;;4921654;29;20429;-78
2022/04/22 03:54:25;;;;;;;9.85;8.07;;;8.50;99.90;;;;;;4920924;29;20095;-77
2022/04/22 03:59:35;;;;;;;10.00;8.25;;;8.50;99.90;;;;;;4932658;29;20042;-78
2022/04/22 04:02:02;;;;;;;14.20;9.70;;;8.50;99.90;;;;;;4936298;29;20044;-78
2022/04/22 04:04:28;;;;;;;13.73;9.88;;;8.50;99.90;;;;;;4921058;29;20051;-78
2022/04/22 04:06:54;;;;;;;10.98;9.00;;;8.50;99.90;;;;;;4943186;29;20463;-79
2022/04/22 04:17:36;;;;;;;12.88;9.45;;;8.60;99.90;;;;;;4939501;29;20518;-79
2022/04/22 04:25:30;;;;;;;10.35;8.98;;;8.60;99.90;;;;;;4938876;29;20054;-78
2022/04/22 04:27:56;;;;;;;11.00;9.27;;;8.60;99.90;;;;;;4938272;29;20471;-78
2022/04/22 04:30:23;;;;;;;10.95;8.52;;;8.70;99.90;;;;;;4919941;29;20105;-78
2022/04/22 04:32:49;;;;;;;9.38;8.38;;;8.70;99.90;;;;;;4936240;29;20046;-78
2022/04/22 04:35:15;;;;;;;11.10;8.32;;;8.70;99.90;;;;;;4937843;29;20098;-80
2022/04/22 04:37:41;;;;;;;11.65;8.88;;;8.70;99.90;;;;;;4920192;29;20124;-78
2022/04/22 04:40:11;;;;;;;13.30;11.18;;;8.80;99.90;;;;;;4919451;29;20122;-78
2022/04/22 04:42:36;;;;;;;11.43;10.07;;;8.80;99.90;;;;;;4936901;29;20032;-78
2022/04/22 04:45:03;;;;;;;15.20;9.32;;;8.80;99.90;;;;;;4936496;29;20031;-78
2022/04/22 04:47:29;;;;;;;10.82;8.55;;;8.90;99.90;;;;;;4936901;29;20027;-78
2022/04/22 04:49:56;;;;;;;11.05;8.32;;;8.80;99.90;;;;;;4937375;29;20107;-78
2022/04/22 04:52:22;;;;;;;14.70;10.15;;;8.90;99.90;;;;;;4919045;29;20436;-79
2022/04/22 04:54:50;;;;;;;10.52;9.40;;;8.80;99.90;;;;;;4936072;29;20028;-78
2022/04/22 04:57:15;;;;;;;13.50;9.95;;;8.90;99.90;;;;;;4918855;29;20023;-79
2022/04/22 04:59:42;;;;;;;9.48;8.50;;;8.90;99.90;;;;;;4936112;29;20027;-78
2022/04/22 05:02:07;;;;;;;12.00;8.73;;;8.90;99.90;;;;;;4936358;29;20043;-78
2022/04/22 05:04:33;;;;;;;11.30;8.85;;;8.90;99.90;;;;;;4935553;29;20464;-78
2022/04/22 05:06:59;;;;;;;10.65;9.55;;;9.00;99.90;;;;;;4936617;29;20039;-82
2022/04/22 05:09:24;;;;;;;5.32;4.80;;;9.00;99.90;;;;;;4937026;29;20488;-80
2022/04/22 05:11:50;;;;;;;11.50;8.95;;;9.10;99.90;;;;;;4937244;29;20032;-76
2022/04/22 05:14:15;;;;;;;11.23;9.07;;;9.20;99.90;;;;;;4937068;29;20486;-76
2022/04/22 05:16:41;;;;;;;10.38;8.48;;;9.20;99.90;;;;;;4939091;29;20031;-77
2022/04/22 05:19:07;;;;;;;12.43;8.43;;;9.10;99.90;;;;;;4919858;29;20424;-76
2022/04/22 05:21:33;;;;;;;10.15;8.35;;;9.00;99.90;;;;;;4937362;29;20039;-77
2022/04/22 05:23:58;;;;;;;11.35;8.32;;;9.00;99.90;;;;;;4903309;29;20059;-77
2022/04/22 05:26:24;;;;;;;11.07;8.50;;;8.90;99.90;;;;;;4936815;29;20038;-77
2022/04/22 05:28:50;;;;;;;12.13;8.20;;;8.90;99.90;;;;;;4918797;29;20027;-77
2022/04/22 05:34:00;;;;;;;12.00;9.75;;;8.90;99.90;;;;;;4936718;29;20067;-77
2022/04/22 05:36:26;;;;;;;11.32;9.02;;;8.90;99.90;;;;;;4936041;29;20060;-77
2022/04/22 05:38:52;;;;;;;12.00;9.70;;;8.90;99.90;;;;;;4935030;29;20439;-77
2022/04/22 05:41:18;;;;;;;13.85;10.90;;;9.00;99.90;;;;;;4934779;29;20439;-77
2022/04/22 05:43:44;;;;;;;11.40;9.20;;;9.00;99.90;;;;;;4919855;29;20032;-77
2022/04/22 05:46:10;;;;;;;12.18;8.15;;;8.90;99.90;;;;;;4919933;29;20590;-77
2022/04/22 05:48:36;;;;;;;11.02;8.02;;;9.00;99.90;;;;;;4937374;29;20031;-77
2022/04/22 05:51:01;;;;;;;11.35;10.13;;;9.00;99.90;;;;;;4920053;29;20019;-76
2022/04/22 05:53:28;;;;;;;12.35;10.13;;;9.00;99.90;;;;;;4936426;29;20456;-77
2022/04/22 05:55:54;;;;;;;13.10;10.80;;;8.90;99.90;;;;;;4937363;29;20130;-77
2022/04/22 05:58:19;;;;;;;16.45;9.68;;;8.90;99.90;;;;;;4936432;29;20416;-77
2022/04/22 06:00:45;;;;;;;12.18;9.70;;;8.90;99.90;;;;;;4920546;29;20495;-77
2022/04/22 06:03:10;;;;;;;12.73;9.43;;;8.90;99.90;;;;;;4919972;29;20079;-77
2022/04/22 06:05:36;;;;;;;12.27;9.85;;;8.80;99.90;;;;;;4919877;29;20032;-77
2022/04/22 06:11:06;;;;;;;12.68;9.82;;;8.80;99.90;;;;;;4937098;29;20043;-77
2022/04/22 06:13:32;;;;;;;14.32;10.30;;;8.80;99.90;;;;;;4938082;29;20028;-77
2022/04/22 06:15:58;;;;;;;16.55;12.32;;;8.70;99.90;;;;;;4937547;29;20027;-76
2022/04/22 06:18:24;;;;;;;14.32;10.55;;;8.80;99.90;;;;;;4920097;29;20384;-77
2022/04/22 06:20:51;;;;;;;12.55;10.23;;;8.70;99.90;;;;;;4937276;29;20038;-77
2022/04/22 06:23:16;;;;;;;12.23;9.93;;;8.80;99.90;;;;;;4935356;29;20027;-77
2022/04/22 06:25:48;;;;;;;13.90;10.85;;;8.80;99.90;;;;;;4936162;29;20024;-78
2022/04/22 06:28:13;;;;;;;13.23;10.55;;;8.80;99.90;;;;;;4935774;29;20023;-77
2022/04/22 06:30:41;;;;;;;17.23;10.90;;;8.80;99.90;;;;;;4918383;29;20060;-77
2022/04/22 06:33:07;;;;;;;18.33;11.75;;;8.80;99.90;;;;;;4918248;29;20032;-77
2022/04/22 06:35:33;;;;;;;13.57;10.23;;;8.80;99.90;;;;;;4918119;29;20032;-77
2022/04/22 06:38:01;;;;;;;13.38;11.32;;;8.80;99.90;;;;;;4933774;29;20023;-77
2022/04/22 06:45:59;;;;;;;14.88;10.48;;;8.90;99.90;;;;;;4939221;29;20038;-77
2022/04/22 06:48:35;;;;;;;13.02;10.57;;;8.90;99.90;;;;;;4921501;29;20047;-77
2022/04/22 06:51:06;;;;;;;14.52;11.60;;;8.90;99.90;;;;;;4922026;29;20063;-77
2022/04/22 06:53:32;;;;;;;17.42;10.30;;;8.90;99.90;;;;;;4939228;29;20023;-77
2022/04/22 06:55:58;;;;;;;19.50;10.90;;;9.00;99.90;;;;;;4938956;29;20038;-77
2022/04/22 06:58:26;;;;;;;12.65;10.35;;;9.00;99.90;;;;;;4938934;29;20032;-77
2022/04/22 07:00:52;;;;;;;15.00;8.98;;;8.90;99.90;;;;;;4939756;29;20032;-77
2022/04/22 07:03:19;;;;;;;14.20;11.13;;;8.80;99.90;;;;;;4940180;29;20024;-77
2022/04/22 07:05:47;;;;;;;11.85;9.35;;;8.80;99.90;;;;;;4920887;29;20028;-77
2022/04/22 07:08:14;;;;;;;11.50;9.27;;;8.80;99.90;;;;;;4938571;29;20050;-77
2022/04/22 07:10:46;;;;;;;13.23;9.93;;;8.80;99.90;;;;;;4938542;29;20027;-77
2022/04/22 07:13:12;;;;;;;14.20;10.20;;;8.80;99.90;;;;;;4921540;29;20028;-77
2022/04/22 07:15:39;;;;;;;12.63;10.05;;;8.60;99.90;;;;;;4938083;29;20405;-77
2022/04/22 07:18:06;;;;;;;12.75;9.52;;;8.70;99.90;;;;;;4921575;29;20034;-77
2022/04/22 07:20:32;;;;;;;13.00;8.88;;;8.70;99.90;;;;;;4921738;29;20031;-77
2022/04/22 07:23:02;;;;;;;15.70;11.68;;;9.10;99.90;;;;;;4938735;29;20039;-84
2022/04/22 07:25:29;;;;;;;15.00;10.57;;;9.30;99.90;;;;;;4942060;29;20016;-81
2022/04/22 07:27:55;;;;;;;14.38;11.75;;;9.30;99.90;;;;;;4940969;29;20039;-77
2022/04/22 07:30:22;;;;;;;13.07;11.20;;;9.10;99.90;;;;;;4938646;29;20380;-77
2022/04/22 07:32:49;;;;;;;13.63;10.73;;;8.90;99.90;;;;;;4939175;29;20431;-77
2022/04/22 07:35:20;;;;;;;11.90;9.63;;;8.90;99.90;;;;;;4921949;29;20024;-77
2022/04/22 07:37:48;;;;;;;11.00;8.70;;;8.80;99.90;;;;;;4940914;29;20039;-77
2022/04/22 07:40:15;;;;;;;16.02;11.55;;;8.90;99.90;;;;;;4938468;29;20028;-77
2022/04/22 07:46:46;;;;;;;14.73;9.85;;;9.00;99.90;;;;;;4922758;29;20047;-77
2022/04/22 07:48:17;;;;;;;24.08;18.08;;;8.80;99.90;;;;;;4940469;29;20640;-77
2022/04/22 07:50:43;;;;;;;21.10;13.27;;;8.90;99.90;;;;;;4939287;29;20027;-77
2022/04/22 07:53:09;;;;;;;15.65;11.95;;;8.80;99.90;;;;;;4939835;29;20043;-81
2022/04/22 07:55:35;;;;;;;13.57;11.02;;;8.80;99.90;;;;;;4924068;29;20028;-77
2022/04/22 07:58:00;;;;;;;14.75;11.38;;;8.80;99.90;;;;;;4943934;29;20028;-83
2022/04/22 08:00:27;;;;;;;13.63;11.60;;;8.80;99.90;;;;;;4934485;29;20510;-78
2022/04/22 08:02:58;;;;;;;14.07;12.13;;;8.80;99.90;;;;;;4950304;29;20048;-80
2022/04/22 08:05:24;;;;;;;13.73;10.35;;;8.90;99.90;;;;;;4907491;29;20468;-78
2022/04/22 08:07:49;;;;;;;14.25;10.88;;;8.90;99.90;;;;;;4937502;29;20027;-77
2022/04/22 08:10:15;;;;;;;11.88;10.57;;;8.90;99.90;;;;;;4940623;29;20114;-77
2022/04/22 08:12:41;;;;;;;15.80;11.43;;;8.80;99.90;;;;;;4937587;29;20019;-77
2022/04/22 08:15:07;;;;;;;15.27;12.60;;;8.80;99.90;;;;;;4938213;29;20040;-77
2022/04/22 08:17:37;;;;;;;14.20;11.27;;;8.90;99.90;;;;;;4937198;29;20098;-77
2022/04/22 08:20:07;;;;;;;15.75;11.57;;;9.00;99.90;;;;;;4937309;29;20031;-76
2022/04/22 08:22:33;;;;;;;13.82;11.02;;;9.00;99.90;;;;;;4937873;29;20127;-77
2022/04/22 08:24:59;;;;;;;19.67;13.75;;;9.00;99.90;;;;;;4936721;29;20456;-77
2022/04/22 08:27:29;;;;;;;14.25;10.55;;;9.10;99.90;;;;;;4937903;29;20055;-77
2022/04/22 08:29:56;;;;;;;13.05;10.75;;;9.10;99.90;;;;;;4937419;29;20032;-77
2022/04/22 08:32:22;;;;;;;11.52;9.95;;;9.10;99.90;;;;;;4937085;29;20027;-77
2022/04/22 08:34:48;;;;;;;11.60;9.07;;;9.20;99.90;;;;;;4937488;29;20062;-77
2022/04/22 08:37:13;;;;;;;14.77;9.75;;;9.20;99.90;;;;;;4936582;29;20036;-77
2022/04/22 08:39:39;;;;;;;13.30;10.02;;;9.20;99.90;;;;;;4937510;29;20197;-77
2022/04/22 08:42:05;;;;;;;15.63;9.82;;;9.20;99.90;;;;;;4937784;29;20039;-78
2022/04/22 08:44:31;;;;;;;15.30;11.73;;;9.30;99.90;;;;;;4937495;29;20023;-78
2022/04/22 08:52:28;;;;;;;11.75;9.65;;;9.40;99.90;;;;;;4937940;29;20039;-78
2022/04/22 08:54:55;;;;;;;12.35;10.68;;;9.30;99.90;;;;;;4920389;29;20024;-77
2022/04/22 08:57:21;;;;;;;12.50;9.38;;;9.40;99.90;;;;;;4938145;29;20031;-77
2022/04/22 08:59:47;;;;;;;11.82;10.18;;;9.40;99.90;;;;;;4943313;29;20024;-79
2022/04/22 09:02:17;;;;;;;11.68;10.32;;;9.50;99.90;;;;;;4946802;29;20103;-77
2022/04/22 09:04:44;;;;;;;13.48;10.30;;;9.60;99.90;;;;;;4944359;29;20040;-77
2022/04/22 09:07:13;;;;;;;11.48;9.35;;;9.60;99.90;;;;;;5114842;23;20570;-78
2022/04/22 09:09:40;;;;;;;12.40;10.48;;;9.70;99.90;;;;;;4959756;29;20023;-78
2022/04/22 09:12:13;;;;;;;15.95;12.18;;;9.70;99.90;;;;;;4958843;29;20023;-78
2022/04/22 09:15:09;;;;;;;18.08;13.73;;;9.70;99.90;;;;;;4959030;29;20023;-78
2022/04/22 09:17:36;;;;;;;14.45;11.85;;;9.60;99.90;;;;;;4921978;29;20087;-78
2022/04/22 09:20:04;;;;;;;14.20;10.55;;;9.60;99.90;;;;;;4937533;29;20079;-77
2022/04/22 09:22:36;;;;;;;13.30;10.88;;;9.60;99.90;;;;;;4921652;29;20035;-80
2022/04/22 09:25:05;;;;;;;15.07;12.48;;;9.70;99.90;;;;;;4924149;29;20380;-83
2022/04/22 09:27:32;;;;;;;14.40;11.30;;;9.60;99.90;;;;;;4919755;29;20028;-77
2022/04/22 09:29:59;;;;;;;13.18;9.82;;;9.70;99.90;;;;;;4919739;29;20379;-77
2022/04/22 09:32:26;;;;;;;12.57;10.30;;;9.60;99.90;;;;;;4936496;29;20032;-74
2022/04/22 09:34:55;;;;;;;15.43;10.68;;;9.70;99.90;;;;;;4935292;29;20582;-73
2022/04/22 09:42:53;;;;;;;13.93;10.90;;;9.50;99.90;;;;;;4936506;29;20051;-76
2022/04/22 09:45:19;;;;;;;12.98;10.57;;;9.50;99.90;;;;;;4917985;29;20371;-74
2022/04/22 09:47:59;;;;;;;14.02;11.50;;;9.50;99.90;;;;;;4918594;29;20352;-75
2022/04/22 09:50:44;;;;;;;13.80;11.65;;;9.70;99.90;;;;;;4918885;29;20391;-76
2022/04/22 09:53:11;;;;;;;14.32;11.40;;;9.60;99.90;;;;;;4935787;29;20030;-75
2022/04/22 09:55:54;;;;;;;15.27;11.02;;;9.60;99.90;;;;;;4918309;29;20078;-75
2022/04/22 09:58:24;;;;;;;16.27;12.15;;;9.60;99.90;;;;;;4935397;29;20083;-75
2022/04/22 10:01:00;;;;;;;13.63;10.77;;;9.50;99.90;;;;;;4935375;29;20043;-76
2022/04/22 10:03:34;;;;;;;15.07;11.55;;;9.50;99.90;;;;;;4935288;29;20099;-75
2022/04/22 10:06:01;;;;;;;17.48;12.18;;;9.50;99.90;;;;;;4935139;29;20110;-74
2022/04/22 10:08:30;;;;;;;16.08;12.23;;;9.40;99.90;;;;;;4934882;29;20059;-75
2022/04/22 10:11:02;;;;;;;16.90;11.88;;;9.40;99.90;;;;;;4935125;29;20042;-75
2022/04/22 10:13:48;;;;;;;13.65;11.75;;;9.50;99.90;;;;;;4934959;29;20028;-74
2022/04/22 10:16:14;;;;;;;16.67;11.73;;;9.50;99.90;;;;;;4917164;29;20031;-74
2022/04/22 10:18:42;;;;;;;16.38;13.38;;;9.80;99.90;;;;;;4934940;29;20020;-75
2022/04/22 10:21:08;;;;;;;14.57;12.25;;;10.00;99.90;;;;;;4934619;29;20638;-75
2022/04/22 10:23:35;;;;;;;14.40;11.48;;;10.00;99.90;;;;;;4917647;29;20035;-76
2022/04/22 10:26:02;;;;;;;16.35;12.18;;;10.00;99.90;;;;;;4934805;29;20039;-75
2022/04/22 10:28:30;;;;;;;12.75;11.15;;;9.90;99.90;;;;;;4917691;29;20395;-75
2022/04/22 10:31:00;;;;;;;12.50;10.57;;;9.80;99.90;;;;;;4917553;29;20028;-75
2022/04/22 10:33:27;;;;;;;13.90;11.52;;;9.70;99.90;;;;;;4934727;29;20098;-75
2022/04/22 10:35:58;;;;;;;14.77;11.80;;;9.80;99.90;;;;;;4934458;29;20023;-75
2022/04/22 10:38:41;;;;;;;25.33;18.17;;;9.70;99.90;;;;;;4934649;29;20528;-74
2022/04/22 10:41:18;;;;;;;15.85;12.05;;;9.70;99.90;;;;;;4934525;29;20488;-74
2022/04/22 10:49:37;;;;;;;16.75;13.20;;;9.70;99.90;;;;;;4934492;29;20035;-75
2022/04/22 10:52:13;;;;;;;12.77;10.93;;;9.70;99.90;;;;;;4934782;29;20113;-74
2022/04/22 10:54:50;;;;;;;;;;;9.70;99.90;;;;;;4934527;29;20020;-75
2022/04/22 10:57:19;;;;;;;17.15;12.98;;;9.70;99.90;;;;;;4917411;29;20274;-74
2022/04/22 10:59:46;;;;;;;12.63;10.93;;;9.70;99.90;;;;;;4934957;29;20027;-74
2022/04/22 11:02:30;;;;;;;11.52;10.30;;;9.70;99.90;;;;;;4917556;29;20094;-74
2022/04/22 11:05:20;;;;;;;16.33;12.25;;;9.60;99.90;;;;;;4917859;29;20433;-74
2022/04/22 11:07:57;;;;;;;13.75;11.43;;;9.70;99.90;;;;;;4934236;29;20556;-74
2022/04/22 11:10:26;;;;;;;14.00;11.57;;;9.70;99.90;;;;;;4934542;29;20056;-75
2022/04/22 11:12:58;;;;;;;15.52;11.68;;;9.70;99.90;;;;;;4921765;29;20472;-74
2022/04/22 11:15:42;;;;;;;15.70;12.48;;;9.70;99.90;;;;;;4934649;29;20040;-74
2022/04/22 11:18:12;;;;;;;16.83;12.73;;;9.70;99.90;;;;;;4934612;29;20371;-74
2022/04/22 11:20:38;;;;;;;14.13;11.68;;;9.60;99.90;;;;;;4934395;29;20105;-75
2022/04/22 11:23:09;;;;;;;16.35;12.95;;;9.60;99.90;;;;;;4935846;29;20031;-74
2022/04/22 11:25:35;;;;;;;17.02;12.63;;;9.60;99.90;;;;;;4934341;29;20008;-75
2022/04/22 11:28:02;;;;;;;15.95;12.48;;;9.50;99.90;;;;;;4934996;29;20039;-74
2022/04/22 11:30:29;;;;;;;18.27;13.90;;;9.60;99.90;;;;;;4938074;29;20059;-74
2022/04/22 11:33:23;;;;;;;19.27;14.02;;;9.60;99.90;;;;;;4937732;29;20043;-75
2022/04/22 11:35:52;;;;;;;17.73;13.68;;;9.60;99.90;;;;;;4937807;29;20053;-74
2022/04/22 11:38:17;;;;;;;20.55;14.05;;;9.60;99.90;;;;;;4937974;29;20487;-75
2022/04/22 11:40:44;;;;;;;18.23;14.70;;;9.50;99.90;;;;;;4937905;29;20032;-75
2022/04/22 11:43:22;;;;;;;19.50;14.00;;;9.60;99.90;;;;;;4921133;29;20040;-75
2022/04/22 11:45:50;;;;;;;18.10;14.65;;;9.60;99.90;;;;;;4938177;29;20102;-76
2022/04/22 11:48:19;;;;;;;20.15;15.02;;;9.60;99.90;;;;;;4921297;29;20055;-75
2022/04/22 11:50:46;;;;;;;20.25;14.10;;;9.70;99.90;;;;;;4920518;29;20056;-76
2022/04/22 11:53:16;;;;;;;20.13;14.50;;;9.80;99.90;;;;;;4920770;29;20059;-76
2022/04/22 11:55:43;;;;;;;21.02;16.35;;;9.80;99.90;;;;;;4920467;29;20028;-75
2022/04/22 11:58:12;;;;;;;17.63;14.38;;;9.80;99.90;;;;;;4937003;29;20035;-75
2022/04/22 12:06:19;;;;;;;20.15;14.60;;;10.10;99.90;;;;;;4936862;29;20043;-75
2022/04/22 12:09:05;;;;;;;44.50;25.10;;;10.10;99.90;;;;;;4936981;29;20058;-76
2022/04/22 12:11:39;;;;;;;21.48;15.27;;;10.20;99.90;;;;;;4918040;29;20047;-75
2022/04/22 12:14:04;;;;;;;20.73;16.45;;;10.30;99.90;;;;;;4937300;29;20059;-76
2022/04/22 12:16:32;;;;;;;20.80;16.60;;;10.40;99.90;;;;;;4936717;29;20115;-76
2022/04/22 12:19:00;;;;;;;20.42;15.60;;;10.50;99.90;;;;;;4919709;29;20020;-78
2022/04/22 12:21:26;;;;;;;20.73;14.98;;;10.60;99.90;;;;;;4936593;29;20035;-76
2022/04/22 12:23:57;;;;;;;18.77;14.57;;;10.70;99.90;;;;;;4936633;29;20031;-76
2022/04/22 12:26:24;;;;;;;19.27;14.18;;;10.90;99.90;;;;;;4936984;29;20027;-77
2022/04/22 12:28:57;;;;;;;18.00;13.20;;;10.70;99.90;;;;;;4938327;29;20038;-78
2022/04/22 12:31:24;;;;;;;15.77;12.75;;;10.70;99.90;;;;;;4937929;29;20030;-79
2022/04/22 12:34:00;;;;;;;14.95;11.68;;;10.70;99.90;;;;;;4922207;29;20372;-79
2022/04/22 12:36:26;;;;;;;13.75;11.70;;;10.70;99.90;;;;;;4920363;29;20039;-78
2022/04/22 12:38:52;;;;;;;16.90;12.07;;;10.60;99.90;;;;;;4936437;29;20011;-79
2022/04/22 12:41:22;;;;;;;15.50;13.10;;;10.60;99.90;;;;;;4929246;29;20059;-77
2022/04/22 12:43:50;;;;;;;16.73;12.80;;;10.50;99.90;;;;;;4936518;29;20024;-77
2022/04/22 12:52:15;;;;;;;16.17;12.25;;;10.40;99.90;;;;;;4937092;29;20027;-77
2022/04/22 12:54:43;;;;;;;15.05;11.80;;;10.30;99.90;;;;;;4939616;29;20028;-78
2022/04/22 12:57:26;;;;;;;20.75;14.55;;;10.20;99.90;;;;;;4926247;29;20036;-76
2022/04/22 12:59:54;;;;;;;19.20;14.30;;;10.20;99.90;;;;;;4940122;29;20502;-77
2022/04/22 13:02:30;;;;;;;20.23;14.60;;;10.20;99.90;;;;;;4937918;29;20440;-78
2022/04/22 13:05:09;;;;;;;20.65;12.82;;;10.20;99.90;;;;;;4919818;29;20063;-77
2022/04/22 13:07:42;;;;;;;27.35;17.30;;;10.20;99.90;;;;;;4936235;29;20050;-78
2022/04/22 13:10:12;;;;;;;17.80;13.30;;;10.10;99.90;;;;;;4936366;29;20027;-77
2022/04/22 13:12:41;;;;;;;20.88;13.45;;;10.20;99.90;;;;;;4918935;29;20039;-78
2022/04/22 13:15:19;;;;;;;15.88;12.48;;;10.50;99.90;;;;;;4935887;29;20046;-78
2022/04/22 13:17:53;;;;;;;21.88;14.60;;;10.60;99.90;;;;;;4935868;29;20024;-79
2022/04/22 13:20:21;;;;;;;18.27;13.52;;;10.50;99.90;;;;;;4918887;29;20062;-79
2022/04/22 13:22:49;;;;;;;16.20;11.60;;;10.50;99.90;;;;;;4918623;29;20178;-81
2022/04/22 13:25:17;;;;;;;16.45;11.18;;;10.40;99.90;;;;;;4936222;29;20036;-81
2022/04/22 13:27:43;;;;;;;16.00;10.35;;;10.30;99.90;;;;;;4935927;29;20723;-79
2022/04/22 13:30:10;;;;;;;16.50;11.82;;;10.20;99.90;;;;;;4919280;29;20031;-78
2022/04/22 13:32:36;;;;;;;15.38;10.93;;;10.10;99.90;;;;;;4935009;29;20032;-76
2022/04/22 13:35:04;;;;;;;18.77;13.15;;;10.10;99.90;;;;;;4935399;29;20098;-79
2022/04/22 13:37:32;;;;;;;18.77;11.70;;;10.00;99.90;;;;;;4918988;29;20024;-79
2022/04/22 13:39:57;;;;;;;18.83;11.73;;;9.90;99.90;;;;;;4920574;29;20118;-79
2022/04/22 13:42:23;;;;;;;22.55;14.25;;;9.90;99.90;;;;;;4938930;29;20035;-79
2022/04/22 13:53:02;;;;;;;20.35;14.45;;;9.70;99.90;;;;;;4939309;29;20083;-76
2022/04/22 13:55:28;;;;;;;33.30;21.98;;;9.60;99.90;;;;;;4938702;29;20032;-76
2022/04/22 13:57:54;;;;;;;23.08;14.65;;;9.60;99.90;;;;;;4937751;29;20087;-76
2022/04/22 14:00:20;;;;;;;20.05;14.57;;;9.60;99.90;;;;;;4936246;29;20032;-77
2022/04/22 14:02:46;;;;;;;25.92;17.38;;;9.60;99.90;;;;;;4936137;29;20484;-75
2022/04/22 14:05:11;;;;;;;22.67;16.20;;;9.60;99.90;;;;;;4936578;29;20067;-76
2022/04/22 14:07:37;;;;;;;37.42;23.35;;;9.50;99.90;;;;;;4936252;29;20052;-76